Time;durP1;ratioP1;P1;durP2;ratioP2;P2;SDS_P1;SDS_P2;PMS_P1;PMS_P2;Temp;Humidity;BMP_temperature;BMP_pressure;BME280_temperature;BME280_humidity;BME280_pressure;Samples;Min_cycle;Max_cycle;Signal;HPM_P1;HPM_P2
2022/11/06 00:00:18;;;;;;;27.73;7.95;;;;;;;-146.42;100.00;67171.59;6219420;23;20509;-87
2022/11/06 00:02:50;;;;;;;21.55;8.07;;;;;;;-146.42;100.00;67171.59;6220960;23;20223;-87
2022/11/06 00:08:27;;;;;;;25.15;7.90;;;;;;;-146.42;100.00;67171.59;6183980;23;20016;-88
2022/11/06 00:11:17;;;;;;;19.13;7.20;;;;;;;-146.42;100.00;67171.59;6183006;23;20478;-88
2022/11/06 00:13:48;;;;;;;20.63;7.88;;;;;;;-146.42;100.00;67171.59;6220659;23;20008;-88
2022/11/06 00:16:22;;;;;;;16.58;7.20;;;;;;;-146.42;100.00;67171.59;6219809;23;20316;-89
2022/11/06 00:18:57;;;;;;;17.85;7.53;;;;;;;-146.42;100.00;67171.59;6220718;23;20039;-88
2022/11/06 00:21:34;;;;;;;24.80;8.40;;;;;;;-146.42;100.00;67171.59;6184111;23;20074;-89
2022/11/06 00:24:34;;;;;;;19.00;7.90;;;;;;;-146.42;100.00;67171.59;6183756;23;20086;-88
2022/11/06 00:27:21;;;;;;;;;;;;;;;;;;;;;
2022/11/06 00:29:51;;;;;;;25.05;8.43;;;;;;;-146.42;100.00;67171.59;6181806;23;20047;-87
2022/11/06 00:32:24;;;;;;;21.58;8.80;;;;;;;-146.42;100.00;67171.59;6182264;23;20528;-89
2022/11/06 00:34:55;;;;;;;16.30;7.78;;;;;;;-146.42;100.00;67171.59;6181579;23;20016;-88
2022/11/06 00:37:37;;;;;;;21.42;7.45;;;;;;;-146.42;100.00;67171.59;6220372;23;20016;-87
2022/11/06 00:40:18;;;;;;;19.20;8.23;;;;;;;-146.42;100.00;67171.59;6182874;23;20378;-88
2022/11/06 00:42:53;;;;;;;18.90;8.27;;;;;;;-146.42;100.00;67171.59;6183811;23;20557;-87
2022/11/06 00:46:00;;;;;;;16.35;7.25;;;;;;;-146.42;100.00;67171.59;6182711;23;20020;-87
2022/11/06 00:48:33;;;;;;;16.42;7.68;;;;;;;-146.42;100.00;67171.59;6219565;23;20027;-87
2022/11/06 00:51:10;;;;;;;17.42;8.48;;;;;;;-146.42;100.00;67171.59;6219183;23;20035;-88
2022/11/06 00:53:48;;;;;;;23.85;8.02;;;;;;;-146.42;100.00;67171.59;6220265;23;20043;-87
2022/11/06 00:56:24;;;;;;;22.70;8.93;;;;;;;-146.42;100.00;67171.59;6220168;23;20451;-89
2022/11/06 00:59:01;;;;;;;19.48;8.05;;;;;;;-146.42;100.00;67171.59;6183311;23;20020;-87
2022/11/06 01:01:39;;;;;;;19.63;8.15;;;;;;;-146.42;100.00;67171.59;6183148;23;20235;-88
2022/11/06 01:04:32;;;;;;;23.85;7.95;;;;;;;-146.42;100.00;67171.59;6219882;23;20016;-87
2022/11/06 01:07:01;;;;;;;18.52;8.50;;;;;;;-146.42;100.00;67171.59;6183157;23;20099;-87
2022/11/06 01:09:42;;;;;;;20.40;8.20;;;;;;;-146.42;100.00;67171.59;6182840;23;20063;-88
2022/11/06 01:12:39;;;;;;;;;;;;;;;;;;;;;
2022/11/06 01:15:18;;;;;;;17.90;7.40;;;;;;;-146.42;100.00;67171.59;6207542;23;20021;-88
2022/11/06 01:17:54;;;;;;;19.98;7.55;;;;;;;-146.42;100.00;67171.59;6184588;23;20039;-89
2022/11/06 01:21:07;;;;;;;23.75;8.93;;;;;;;-146.42;100.00;67171.59;6184040;23;20103;-88
2022/11/06 01:23:44;;;;;;;;;;;;;;;;;;;;;
2022/11/06 01:26:19;;;;;;;18.45;7.00;;;;;;;-146.42;100.00;67171.59;6184725;23;20048;-87
2022/11/06 01:29:08;;;;;;;14.95;6.60;;;;;;;-146.42;100.00;67171.59;6185093;23;20107;-88
2022/11/06 01:31:44;;;;;;;21.63;7.47;;;;;;;-146.42;100.00;67171.59;6184070;23;20103;-88
2022/11/06 01:34:17;;;;;;;15.98;6.63;;;;;;;-146.42;100.00;67171.59;6184852;23;20620;-88
2022/11/06 01:37:02;;;;;;;18.90;7.22;;;;;;;-146.42;100.00;67171.59;6184480;23;20028;-87
2022/11/06 01:45:40;;;;;;;16.35;6.47;;;;;;;-146.42;100.00;67171.59;6185150;23;20095;-88
2022/11/06 01:48:13;;;;;;;23.67;6.75;;;;;;;-146.42;100.00;67171.59;6222350;23;20016;-88
2022/11/06 01:51:10;;;;;;;18.55;6.72;;;;;;;-146.42;100.00;67171.59;6185031;23;20031;-88
2022/11/06 01:53:43;;;;;;;14.98;5.80;;;;;;;-146.42;100.00;67171.59;6220995;23;20013;-89
2022/11/06 01:56:24;;;;;;;18.25;6.80;;;;;;;-146.42;100.00;67171.59;6184895;23;20017;-88
2022/11/06 01:59:01;;;;;;;16.50;6.45;;;;;;;-146.42;100.00;67171.59;6184568;23;20016;-88
2022/11/06 02:01:42;;;;;;;13.27;5.60;;;;;;;-146.42;100.00;67171.59;6184275;23;20092;-88
2022/11/06 02:04:21;;;;;;;13.73;5.63;;;;;;;-146.42;100.00;67171.59;6185037;23;20013;-88
2022/11/06 02:07:14;;;;;;;15.02;5.50;;;;;;;-146.42;100.00;67171.59;6185519;23;20025;-87
2022/11/06 02:09:44;;;;;;;14.70;5.85;;;;;;;-146.42;100.00;67171.59;6221197;23;20009;-88
2022/11/06 02:12:18;;;;;;;17.30;6.53;;;;;;;-146.42;100.00;67171.59;6221515;23;20031;-87
2022/11/06 02:15:24;;;;;;;20.67;6.20;;;;;;;-146.42;100.00;67171.59;6220670;23;20012;-89
2022/11/06 02:18:19;;;;;;;14.48;5.60;;;;;;;-146.42;100.00;67171.59;6185347;23;20103;-88
2022/11/06 02:21:22;;;;;;;21.98;6.60;;;;;;;-146.42;100.00;67171.59;6185215;23;20510;-88
2022/11/06 02:24:06;;;;;;;11.85;4.82;;;;;;;-146.42;100.00;67171.59;6184219;23;20497;-89
2022/11/06 02:27:13;;;;;;;16.13;5.72;;;;;;;-146.42;100.00;67171.59;6211766;23;20284;-89
2022/11/06 02:29:48;;;;;;;17.65;5.50;;;;;;;-146.42;100.00;67171.59;6221600;23;20047;-88
2022/11/06 02:32:24;;;;;;;19.20;5.22;;;;;;;-146.42;100.00;67171.59;6184931;23;20035;-87
2022/11/06 02:35:04;;;;;;;;;;;;;;;;;;;;;
2022/11/06 02:37:49;;;;;;;14.65;5.63;;;;;;;-146.42;100.00;67171.59;6211670;23;19948;-88
2022/11/06 02:40:27;;;;;;;16.85;4.90;;;;;;;-146.42;100.00;67171.59;6183532;23;20084;-88
2022/11/06 02:43:02;;;;;;;18.48;5.30;;;;;;;-146.42;100.00;67171.59;6185881;23;20024;-87
2022/11/06 02:45:54;;;;;;;21.10;5.80;;;;;;;-146.42;100.00;67171.59;6183923;23;20067;-87
2022/11/06 02:48:41;;;;;;;18.05;5.68;;;;;;;-146.42;100.00;67171.59;6220547;23;20039;-89
2022/11/06 02:51:25;;;;;;;13.18;4.97;;;;;;;-146.42;100.00;67171.59;6220661;23;20016;-86
2022/11/06 02:54:04;;;;;;;17.17;5.60;;;;;;;-146.42;100.00;67171.59;6183428;23;20090;-89
2022/11/06 02:56:53;;;;;;;24.02;5.38;;;;;;;-146.42;100.00;67171.59;6184989;23;20111;-88
2022/11/06 02:59:31;;;;;;;16.77;4.97;;;;;;;-146.42;100.00;67171.59;6183665;23;20028;-89
2022/11/06 03:02:18;;;;;;;15.00;5.13;;;;;;;-146.42;100.00;67171.59;6185479;23;20147;-88
2022/11/06 03:04:55;;;;;;;18.52;4.82;;;;;;;-146.42;100.00;67171.59;6185438;23;20023;-87
2022/11/06 03:07:34;;;;;;;18.00;5.07;;;;;;;-146.42;100.00;67171.59;6184017;23;20450;-89
2022/11/06 03:10:43;;;;;;;14.55;5.13;;;;;;;-146.42;100.00;67171.59;6184864;23;20017;-88
2022/11/06 03:13:24;;;;;;;21.73;5.22;;;;;;;-146.42;100.00;67171.59;6185809;23;20051;-88
2022/11/06 03:16:07;;;;;;;16.50;4.55;;;;;;;-146.42;100.00;67171.59;6183852;23;20016;-89
2022/11/06 03:18:43;;;;;;;15.10;4.22;;;;;;;-146.42;100.00;67171.59;6221409;23;20020;-88
2022/11/06 03:21:19;;;;;;;;;;;;;;;-146.42;100.00;67171.59;6185183;23;20031;-88
2022/11/06 03:24:01;;;;;;;15.02;5.03;;;;;;;-146.42;100.00;67171.59;6184382;23;20044;-89
2022/11/06 03:26:56;;;;;;;25.45;5.32;;;;;;;-146.42;100.00;67171.59;6183989;23;20024;-88
2022/11/06 03:29:41;;;;;;;24.20;4.78;;;;;;;-146.42;100.00;67171.59;6184529;23;20074;-88
2022/11/06 03:32:19;;;;;;;25.85;5.53;;;;;;;-146.42;100.00;67171.59;6183887;23;20209;-90
2022/11/06 03:35:23;;;;;;;16.13;5.30;;;;;;;-146.42;100.00;67171.59;6221337;23;20016;-88
2022/11/06 03:38:13;;;;;;;16.00;4.30;;;;;;;-146.42;100.00;67171.59;6219476;23;20051;-88
2022/11/06 03:40:53;;;;;;;17.27;5.07;;;;;;;-146.42;100.00;67171.59;6183141;23;20031;-88
2022/11/06 03:43:36;;;;;;;20.88;5.10;;;;;;;-146.42;100.00;67171.59;6184390;23;20314;-87
2022/11/06 03:46:13;;;;;;;18.80;4.30;;;;;;;-146.42;100.00;67171.59;6220233;23;20024;-87
2022/11/06 03:48:56;;;;;;;19.20;5.15;;;;;;;-146.42;100.00;67171.59;6184274;23;20012;-89
2022/11/06 03:51:42;;;;;;;16.85;4.95;;;;;;;-146.42;100.00;67171.59;6219756;23;20012;-88
2022/11/06 03:54:18;;;;;;;15.95;4.32;;;;;;;-146.42;100.00;67171.59;6184608;23;20020;-88
2022/11/06 03:56:56;;;;;;;17.02;5.43;;;;;;;-146.42;100.00;67171.59;6183243;23;20338;-86
2022/11/06 03:59:30;;;;;;;11.18;4.10;;;;;;;-146.42;100.00;67171.59;6220044;23;20017;-89
2022/11/06 04:02:11;;;;;;;11.15;4.55;;;;;;;-146.42;100.00;67171.59;6183136;23;20032;-89
2022/11/06 04:04:51;;;;;;;15.95;4.43;;;;;;;-146.42;100.00;67171.59;6220885;23;20020;-88
2022/11/06 04:07:22;;;;;;;20.67;5.47;;;;;;;-146.42;100.00;67171.59;6183315;23;20103;-89
2022/11/06 04:15:53;;;;;;;17.00;3.90;;;;;;;-146.42;100.00;67171.59;6219848;23;20047;-86
2022/11/06 04:18:28;;;;;;;16.15;3.35;;;;;;;-146.42;100.00;67171.59;6184044;23;20447;-90
2022/11/06 04:21:30;;;;;;;19.48;3.90;;;;;;;-146.42;100.00;67171.59;6183592;23;20050;-87
2022/11/06 04:27:34;;;;;;;15.88;3.90;;;;;;;-146.42;100.00;67171.59;6181750;23;20020;-88
2022/11/06 04:30:17;;;;;;;17.35;4.20;;;;;;;-146.42;100.00;67171.59;6183475;23;20052;-89
2022/11/06 04:33:05;;;;;;;14.95;4.30;;;;;;;-146.42;100.00;67171.59;6183100;23;20091;-88
2022/11/06 04:35:59;;;;;;;23.02;4.80;;;;;;;-146.42;100.00;67171.59;6220232;23;20450;-88
2022/11/06 04:38:40;;;;;;;21.27;4.50;;;;;;;-146.42;100.00;67171.59;6219597;23;20087;-88
2022/11/06 04:41:35;;;;;;;17.67;4.85;;;;;;;-146.42;100.00;67171.59;6183933;23;20028;-88
2022/11/06 04:44:09;;;;;;;13.60;3.35;;;;;;;-146.42;100.00;67171.59;6183597;23;20099;-88
2022/11/06 04:46:47;;;;;;;11.98;4.28;;;;;;;-146.42;100.00;67171.59;6182973;23;20020;-88
2022/11/06 04:49:19;;;;;;;10.73;3.50;;;;;;;-146.42;100.00;67171.59;6219158;23;20156;-88
2022/11/06 04:52:13;;;;;;;13.15;4.03;;;;;;;-146.42;100.00;67171.59;6183364;23;20021;-88
2022/11/06 04:55:11;;;;;;;15.88;4.32;;;;;;;-146.42;100.00;67171.59;6221186;23;20078;-89
2022/11/06 04:57:38;;;;;;;18.17;3.60;;;;;;;-146.42;100.00;67171.59;6182996;23;20017;-88
2022/11/06 05:00:15;;;;;;;19.85;4.00;;;;;;;-146.42;100.00;67171.59;6183462;23;20016;-88
2022/11/06 05:02:44;;;;;;;15.77;3.97;;;;;;;-146.42;100.00;67171.59;6183468;23;20359;-88
2022/11/06 05:05:12;;;;;;;14.57;3.42;;;;;;;-146.42;100.00;67171.59;6219664;23;20016;-89
2022/11/06 05:07:45;;;;;;;13.88;3.90;;;;;;;-146.42;100.00;67171.59;6220315;23;20017;-88
2022/11/06 05:10:16;;;;;;;14.25;3.78;;;;;;;-146.42;100.00;67171.59;6183731;23;20017;-88
2022/11/06 05:12:44;;;;;;;15.25;3.97;;;;;;;-146.42;100.00;67171.59;6219993;23;20517;-90
2022/11/06 05:15:20;;;;;;;13.63;3.88;;;;;;;-146.42;100.00;67171.59;6182721;23;20027;-88
2022/11/06 05:17:55;;;;;;;19.83;3.95;;;;;;;-146.42;100.00;67171.59;6183253;23;20021;-88
2022/11/06 05:20:30;;;;;;;14.65;4.38;;;;;;;-146.42;100.00;67171.59;6183348;23;20355;-88
2022/11/06 05:23:03;;;;;;;;;;;;;;;-146.42;100.00;67171.59;6220376;23;20017;-89
2022/11/06 05:25:34;;;;;;;14.43;4.25;;;;;;;-146.42;100.00;67171.59;6183662;23;19916;-88
2022/11/06 05:28:14;;;;;;;12.88;3.72;;;;;;;-146.42;100.00;67171.59;6183173;23;20020;-88
2022/11/06 05:30:56;;;;;;;11.57;3.50;;;;;;;-146.42;100.00;67171.59;6182579;23;20025;-87
2022/11/06 05:33:39;;;;;;;17.35;3.60;;;;;;;-146.42;100.00;67171.59;6183504;23;20071;-88
2022/11/06 05:36:14;;;;;;;10.32;3.00;;;;;;;-146.42;100.00;67171.59;6219197;23;20020;-88
2022/11/06 05:38:43;;;;;;;17.90;3.53;;;;;;;-146.42;100.00;67171.59;6183315;23;20047;-88
2022/11/06 05:41:18;;;;;;;16.45;3.58;;;;;;;-146.42;100.00;67171.59;6183214;23;20354;-88
2022/11/06 05:43:52;;;;;;;13.35;4.05;;;;;;;-146.42;100.00;67171.59;6183062;23;20074;-88
2022/11/06 05:46:30;;;;;;;15.82;4.45;;;;;;;-146.42;100.00;67171.59;6182978;23;20131;-88
2022/11/06 05:49:07;;;;;;;10.75;3.50;;;;;;;-146.42;100.00;67171.59;6219485;23;20092;-87
2022/11/06 05:51:38;;;;;;;13.70;4.45;;;;;;;-146.42;100.00;67171.59;6181974;23;20043;-88
2022/11/06 05:54:17;;;;;;;15.77;3.72;;;;;;;-146.42;100.00;67171.59;6219812;23;20047;-87
2022/11/06 05:56:54;;;;;;;8.45;3.10;;;;;;;-146.42;100.00;67171.59;6182365;23;20016;-88
2022/11/06 05:59:36;;;;;;;10.73;3.63;;;;;;;-146.42;100.00;67171.59;6181419;23;20048;-88
2022/11/06 06:02:13;;;;;;;13.63;3.63;;;;;;;-146.42;100.00;67171.59;6181202;23;20028;-88
2022/11/06 06:04:51;;;;;;;12.18;3.53;;;;;;;-146.42;100.00;67171.59;6183677;23;20020;-87
2022/11/06 06:07:26;;;;;;;11.95;4.07;;;;;;;-146.42;100.00;67171.59;6182859;23;20017;-88
2022/11/06 06:10:00;;;;;;;17.52;3.85;;;;;;;-146.42;100.00;67171.59;6184632;23;20769;-88
2022/11/06 06:12:30;;;;;;;20.00;4.07;;;;;;;-146.42;100.00;67171.59;6183963;23;20071;-88
2022/11/06 06:15:07;;;;;;;11.32;3.70;;;;;;;-146.42;100.00;67171.59;6185186;23;20047;-88
2022/11/06 06:17:39;;;;;;;16.88;4.05;;;;;;;-146.42;100.00;67171.59;6181047;23;20234;-88
2022/11/06 06:20:38;;;;;;;14.32;4.25;;;;;;;-146.42;100.00;67171.59;6182979;23;20138;-89
2022/11/06 06:23:20;;;;;;;22.73;4.90;;;;;;;-146.42;100.00;67171.59;6184087;23;20024;-88
2022/11/06 06:26:08;;;;;;;15.50;4.18;;;;;;;-146.42;100.00;67171.59;6183285;23;20028;-89
2022/11/06 06:28:51;;;;;;;17.30;4.15;;;;;;;-146.42;100.00;67171.59;6183228;23;20589;-88
2022/11/06 06:34:14;;;;;;;15.10;4.10;;;;;;;-146.42;100.00;67171.59;6220635;23;20017;-87
2022/11/06 06:36:48;;;;;;;22.55;4.47;;;;;;;-146.42;100.00;67171.59;6183436;23;20016;-88
2022/11/06 06:42:40;;;;;;;16.92;4.30;;;;;;;-146.42;100.00;67171.59;6213074;23;20031;-89
2022/11/06 06:45:14;;;;;;;12.10;3.55;;;;;;;-146.42;100.00;67171.59;6184451;23;20489;-88
2022/11/06 06:48:08;;;;;;;19.77;4.85;;;;;;;-146.42;100.00;67171.59;6183416;23;20040;-88
2022/11/06 06:51:20;;;;;;;;;;;;;;;;;;;;;
2022/11/06 07:01:38;;;;;;;;;;;;;;;;;;;;;
2022/11/06 07:07:50;;;;;;;13.88;3.65;;;;;;;-146.42;100.00;67171.59;6219494;23;20043;-88
2022/11/06 07:14:48;;;;;;;;;;;;;;;;;;;;;
2022/11/06 07:18:34;;;;;;;;;;;;;;;;;;;;;
2022/11/06 07:25:10;;;;;;;12.98;4.10;;;;;;;-146.42;100.00;67171.59;6159139;23;20529;-89
2022/11/06 07:32:04;;;;;;;;;;;;;;;;;;;;;
2022/11/06 07:34:56;;;;;;;13.10;4.78;;;;;;;-146.42;100.00;67171.59;6183674;23;20031;-88
2022/11/06 07:37:48;;;;;;;11.88;3.22;;;;;;;-146.42;100.00;67171.59;6182459;23;20036;-89
2022/11/06 07:40:20;;;;;;;20.55;4.13;;;;;;;-146.42;100.00;67171.59;6183239;23;20442;-90
2022/11/06 07:43:38;;;;;;;12.48;4.15;;;;;;;-146.42;100.00;67171.59;6218787;23;20074;-88
2022/11/06 07:46:36;;;;;;;;;;;;;;;;;;;;;
2022/11/06 07:49:49;;;;;;;;;;;;;;;;;;;;;
2022/11/06 07:52:40;;;;;;;12.82;3.20;;;;;;;-146.42;100.00;67171.59;6179661;23;20117;-89
2022/11/06 07:56:05;;;;;;;11.15;3.47;;;;;;;-146.42;100.00;67171.59;6210627;23;20359;-90
2022/11/06 07:58:53;;;;;;;12.30;3.80;;;;;;;-146.42;100.00;67171.59;6184050;23;20021;-90
2022/11/06 08:01:39;;;;;;;12.18;4.00;;;;;;;-146.42;100.00;67171.59;6219596;23;20091;-90
2022/11/06 08:04:48;;;;;;;15.75;3.50;;;;;;;-146.42;100.00;67171.59;6210015;23;20033;-90
2022/11/06 08:07:50;;;;;;;;;;;;;;;;;;;;;
2022/11/06 08:14:34;;;;;;;11.35;3.80;;;;;;;-146.42;100.00;67171.59;6221024;23;20028;-88
2022/11/06 08:20:42;;;;;;;;;;;;;;;;;;;;;
2022/11/06 08:23:34;;;;;;;11.95;3.20;;;;;;;-146.42;100.00;67171.59;6221246;23;20256;-89
2022/11/06 08:26:31;;;;;;;;;;;;;;;;;;;;;
2022/11/06 08:29:21;;;;;;;10.38;3.33;;;;;;;-146.42;100.00;67171.59;6183767;23;20017;-90
2022/11/06 08:32:02;;;;;;;14.52;3.05;;;;;;;-146.42;100.00;67171.59;6183119;23;20021;-89
2022/11/06 08:34:52;;;;;;;17.00;3.47;;;;;;;-146.42;100.00;67171.59;6220588;23;20028;-88
2022/11/06 08:41:40;;;;;;;15.32;2.92;;;;;;;-146.42;100.00;67171.59;6155149;23;20353;-91
2022/11/06 08:44:12;;;;;;;8.75;2.95;;;;;;;-146.42;100.00;67171.59;6101913;23;20097;-90
2022/11/06 08:49:41;;;;;;;11.63;3.30;;;;;;;-146.42;100.00;67171.59;6181031;23;20356;-90
2022/11/06 08:52:24;;;;;;;;;;;;;;;;;;;;;
2022/11/06 08:58:30;;;;;;;12.15;3.50;;;;;;;-146.42;100.00;67171.59;6208577;23;20025;-86
2022/11/06 09:04:04;;;;;;;10.95;3.53;;;;;;;-146.42;100.00;67171.59;6181507;23;20017;-87
2022/11/06 09:06:55;;;;;;;14.63;5.07;;;;;;;-146.42;100.00;67171.59;6182108;23;20021;-85
2022/11/06 09:09:33;;;;;;;16.58;2.80;;;;;;;-146.42;100.00;67171.59;6218436;23;20021;-86
2022/11/06 09:12:19;;;;;;;7.35;2.95;;;;;;;-146.42;100.00;67171.59;6217481;23;20461;-86
2022/11/06 09:14:54;;;;;;;7.93;2.85;;;;;;;-146.42;100.00;67171.59;6219781;23;20070;-87
2022/11/06 09:17:38;;;;;;;13.90;3.45;;;;;;;-146.42;100.00;67171.59;6217710;23;20013;-87
2022/11/06 09:20:33;;;;;;;15.05;3.00;;;;;;;-146.42;100.00;67171.59;6182372;23;20096;-87
2022/11/06 09:23:23;;;;;;;14.55;3.03;;;;;;;-146.42;100.00;67171.59;6219579;23;20013;-87
2022/11/06 09:26:09;;;;;;;7.53;3.53;;;;;;;-146.42;100.00;67171.59;6182253;23;20020;-87
2022/11/06 09:28:47;;;;;;;10.55;2.50;;;;;;;-146.42;100.00;67171.59;6181083;23;20108;-86
2022/11/06 09:31:20;;;;;;;9.35;2.55;;;;;;;-146.42;100.00;67171.59;6216734;23;20588;-88
2022/11/06 09:37:53;;;;;;;11.55;2.80;;;;;;;-146.42;100.00;67171.59;6217832;23;20013;-88
2022/11/06 09:40:52;;;;;;;12.75;2.80;;;;;;;-146.42;100.00;67171.59;6123949;23;20087;-87
2022/11/06 09:44:16;;;;;;;16.23;3.28;;;;;;;-146.42;100.00;67171.59;6200342;23;20626;-89
2022/11/06 09:47:13;;;;;;;13.80;2.42;;;;;;;-146.42;100.00;67171.59;6218987;23;20459;-86
2022/11/06 09:52:49;;;;;;;10.70;2.75;;;;;;;-146.42;100.00;67171.59;6167559;23;20071;-89
2022/11/06 09:55:24;;;;;;;9.40;2.78;;;;;;;-146.42;100.00;67171.59;6182684;23;20028;-86
2022/11/06 09:58:22;;;;;;;9.55;2.50;;;;;;;-146.42;100.00;67171.59;6175943;23;20096;-86
2022/11/06 10:01:22;;;;;;;8.63;2.28;;;;;;;-146.42;100.00;67171.59;6217947;23;20025;-87
2022/11/06 10:04:44;;;;;;;15.50;2.78;;;;;;;-146.42;100.00;67171.59;6220773;23;20074;-86
2022/11/06 10:07:36;;;;;;;7.22;2.40;;;;;;;-146.42;100.00;67171.59;6057162;23;20023;-86
2022/11/06 10:14:17;;;;;;;13.07;3.58;;;;;;;-146.42;100.00;67171.59;5959041;24;20459;-87
2022/11/06 10:17:23;;;;;;;10.32;2.25;;;;;;;-146.42;100.00;67171.59;6149608;23;20813;-88
2022/11/06 10:20:19;;;;;;;7.35;2.33;;;;;;;-146.42;100.00;67171.59;6220634;23;20047;-86
2022/11/06 10:23:08;;;;;;;6.88;2.20;;;;;;;-146.42;100.00;67171.59;6182622;23;20656;-88
2022/11/06 10:30:00;;;;;;;;;;;;;;;;;;;;;
2022/11/06 10:33:29;;;;;;;13.20;2.47;;;;;;;-146.42;100.00;67171.59;6065793;23;20700;-86
2022/11/06 10:36:24;;;;;;;;;;;;;;;;;;;;;
2022/11/06 10:53:36;;;;;;;;;;;;;;;;;;;;;
2022/11/06 10:57:22;;;;;;;;;;;;;;;;;;;;;
2022/11/06 11:00:17;;;;;;;8.93;2.33;;;;;;;-146.42;100.00;67171.59;6190606;23;20027;-86
2022/11/06 11:07:00;;;;;;;;;;;;;;;;;;;;;
2022/11/06 11:10:01;;;;;;;6.93;2.15;;;;;;;-146.42;100.00;67171.59;6179609;23;20478;-85
2022/11/06 11:12:44;;;;;;;6.47;2.17;;;;;;;-146.42;100.00;67171.59;6123287;23;20022;-86
2022/11/06 11:15:59;;;;;;;;;;;;;;;;;;;;;
2022/11/06 11:33:07;;;;;;;6.28;2.22;;;;;;;-146.42;100.00;67171.59;6056557;23;20033;-87
2022/11/06 11:36:23;;;;;;;;;;;;;;;;;;;;;
2022/11/06 11:42:54;;;;;;;14.30;2.30;;;;;;;-146.42;100.00;67171.59;6174157;23;20032;-87
2022/11/06 11:49:58;;;;;;;11.10;2.53;;;;;;;-146.42;100.00;67171.59;6081688;23;20019;-88
2022/11/06 11:53:21;;;;;;;;;;;;;;;;;;;;;
2022/11/06 11:56:06;;;;;;;7.30;2.22;;;;;;;-146.42;100.00;67171.59;6207759;23;20108;-86
2022/11/06 12:02:40;;;;;;;9.35;2.20;;;;;;;-146.42;100.00;67171.59;6218795;23;20470;-87
2022/11/06 12:09:02;;;;;;;13.43;2.33;;;;;;;-146.42;100.00;67171.59;6219898;23;20127;-88
2022/11/06 12:11:54;;;;;;;13.00;2.28;;;;;;;-146.42;100.00;67171.59;6181603;23;20464;-87
2022/11/06 12:15:14;;;;;;;;;;;;;;;;;;;;;
2022/11/06 12:17:57;;;;;;;;;;;;;;;-146.42;100.00;67171.59;6182599;23;20658;-88
2022/11/06 12:20:39;;;;;;;12.60;2.97;;;;;;;-146.42;100.00;67171.59;6219845;23;19950;-87
2022/11/06 12:23:18;;;;;;;6.82;2.25;;;;;;;-146.42;100.00;67171.59;6218800;23;20103;-85
2022/11/06 12:26:02;;;;;;;7.65;2.30;;;;;;;-146.42;100.00;67171.59;6219088;23;20012;-88
2022/11/06 12:28:38;;;;;;;13.93;2.78;;;;;;;-146.42;100.00;67171.59;6219172;23;20018;-87
2022/11/06 12:31:20;;;;;;;8.60;2.33;;;;;;;-146.42;100.00;67171.59;6218389;23;20043;-87
2022/11/06 12:34:00;;;;;;;11.38;2.22;;;;;;;-146.42;100.00;67171.59;6219725;23;20009;-87
2022/11/06 12:36:35;;;;;;;10.75;2.10;;;;;;;-146.42;100.00;67171.59;6181777;23;20020;-86
2022/11/06 12:39:15;;;;;;;13.45;2.33;;;;;;;-146.42;100.00;67171.59;6220218;23;20067;-87
2022/11/06 12:41:58;;;;;;;4.93;1.98;;;;;;;-146.42;100.00;67171.59;6220166;23;20020;-86
2022/11/06 12:44:36;;;;;;;11.95;2.58;;;;;;;-146.42;100.00;67171.59;6220368;23;20031;-87
2022/11/06 12:47:22;;;;;;;12.07;2.75;;;;;;;-146.42;100.00;67171.59;6183949;23;20039;-88
2022/11/06 12:50:07;;;;;;;11.77;2.55;;;;;;;-146.42;100.00;67171.59;6220144;23;20044;-87
2022/11/06 12:52:59;;;;;;;10.25;2.47;;;;;;;-146.42;100.00;67171.59;6218659;23;20514;-88
2022/11/06 12:55:33;;;;;;;10.23;2.30;;;;;;;-146.42;100.00;67171.59;6170589;23;20028;-87
2022/11/06 12:58:18;;;;;;;9.10;2.22;;;;;;;-146.42;100.00;67171.59;6182810;23;20070;-88
2022/11/06 13:04:02;;;;;;;12.20;1.80;;;;;;;-146.42;100.00;67171.59;6218598;23;20020;-87
2022/11/06 13:07:08;;;;;;;14.88;2.53;;;;;;;-146.42;100.00;67171.59;6217594;23;20016;-87
2022/11/06 13:09:54;;;;;;;15.73;3.22;;;;;;;-146.42;100.00;67171.59;6181992;23;20080;-87
2022/11/06 13:12:39;;;;;;;11.20;2.28;;;;;;;-146.42;100.00;67171.59;6183280;23;20020;-87
2022/11/06 13:15:30;;;;;;;12.80;2.50;;;;;;;-146.42;100.00;67171.59;6184744;23;20098;-88
2022/11/06 13:18:32;;;;;;;13.65;2.78;;;;;;;-146.42;100.00;67171.59;6220378;23;20013;-87
2022/11/06 13:21:15;;;;;;;6.97;2.65;;;;;;;-146.42;100.00;67171.59;6219557;23;20462;-88
2022/11/06 13:23:53;;;;;;;10.20;2.50;;;;;;;-146.42;100.00;67171.59;6219407;23;20024;-89
2022/11/06 13:26:32;;;;;;;8.88;2.28;;;;;;;-146.42;100.00;67171.59;6183485;23;20099;-87
2022/11/06 13:29:08;;;;;;;16.90;2.67;;;;;;;-146.42;100.00;67171.59;6221341;23;20013;-87
2022/11/06 13:31:47;;;;;;;13.57;2.30;;;;;;;-146.42;100.00;67171.59;6219825;23;20435;-88
2022/11/06 13:34:23;;;;;;;9.00;1.85;;;;;;;-146.42;100.00;67171.59;6218512;23;20016;-86
2022/11/06 13:37:22;;;;;;;;;;;;;;;;;;;;;
2022/11/06 13:40:22;;;;;;;8.20;2.42;;;;;;;-146.42;100.00;67171.59;6172714;23;20024;-88
2022/11/06 13:43:14;;;;;;;;;;;;;;;;;;;;;
2022/11/06 13:46:49;;;;;;;;;;;;;;;;;;;;;
2022/11/06 14:00:21;;;;;;;;;;;;;;;;;;;;;
2022/11/06 14:04:05;;;;;;;;;;;;;;;;;;;;;
2022/11/06 14:14:20;;;;;;;10.63;3.13;;;;;;;-146.42;100.00;67171.59;6023532;23;20024;-88
2022/11/06 14:17:23;;;;;;;13.60;2.50;;;;;;;-146.42;100.00;67171.59;6219100;23;20021;-89
2022/11/06 14:20:35;;;;;;;10.80;3.13;;;;;;;-146.42;100.00;67171.59;6184226;23;20047;-89
2022/11/06 14:24:04;;;;;;;;;;;;;;;;;;;;;
2022/11/06 14:27:12;;;;;;;10.93;2.67;;;;;;;-146.42;100.00;67171.59;6182936;23;20025;-88
2022/11/06 14:30:31;;;;;;;17.35;2.40;;;;;;;-146.42;100.00;67171.59;6200904;23;20020;-88
2022/11/06 14:33:21;;;;;;;;;;;;;;;;;;;;;
2022/11/06 14:36:15;;;;;;;12.75;3.40;;;;;;;-146.42;100.00;67171.59;6178268;23;20074;-88
2022/11/06 14:39:00;;;;;;;14.20;2.63;;;;;;;-146.42;100.00;67171.59;6182473;23;20020;-86
2022/11/06 14:42:07;;;;;;;18.25;2.78;;;;;;;-146.42;100.00;67171.59;6218682;23;20024;-88
2022/11/06 14:45:12;;;;;;;7.60;1.88;;;;;;;-146.42;100.00;67171.59;6182049;23;20024;-87
2022/11/06 14:47:59;;;;;;;6.22;2.38;;;;;;;-146.42;100.00;67171.59;6183920;23;20020;-87
2022/11/06 14:50:42;;;;;;;9.18;2.67;;;;;;;-146.42;100.00;67171.59;6218684;23;20479;-86
2022/11/06 14:53:28;;;;;;;11.95;2.67;;;;;;;-146.42;100.00;67171.59;6183355;23;20017;-87
2022/11/06 14:56:44;;;;;;;11.85;2.28;;;;;;;-146.42;100.00;67171.59;6216517;23;20017;-87
2022/11/06 14:59:30;;;;;;;9.75;2.40;;;;;;;-146.42;100.00;67171.59;6096495;23;20105;-87
2022/11/06 15:02:35;;;;;;;14.02;2.65;;;;;;;-146.42;100.00;67171.59;6199748;23;20360;-87
2022/11/06 15:05:37;;;;;;;;;;;;;;;;;;;;;
2022/11/06 15:09:05;;;;;;;11.88;2.53;;;;;;;-146.42;100.00;67171.59;6217993;23;20067;-87
2022/11/06 15:12:08;;;;;;;12.10;2.55;;;;;;;-146.42;100.00;67171.59;6216491;23;20043;-87
2022/11/06 15:15:17;;;;;;;22.38;2.67;;;;;;;-146.42;100.00;67171.59;6126417;23;20017;-86
2022/11/06 15:17:52;;;;;;;8.55;2.20;;;;;;;-146.42;100.00;67171.59;6093285;23;20346;-88
2022/11/06 15:20:26;;;;;;;12.02;3.13;;;;;;;-146.42;100.00;67171.59;6165254;23;20099;-86
2022/11/06 15:23:15;;;;;;;8.10;3.03;;;;;;;-146.42;100.00;67171.59;6219766;23;20020;-88
2022/11/06 15:25:50;;;;;;;12.77;3.08;;;;;;;-146.42;100.00;67171.59;6181062;23;20096;-87
2022/11/06 15:28:29;;;;;;;13.50;2.47;;;;;;;-146.42;100.00;67171.59;6183693;23;20643;-87
2022/11/06 15:31:07;;;;;;;13.43;2.67;;;;;;;-146.42;100.00;67171.59;6182662;23;20025;-87
2022/11/06 15:37:31;;;;;;;8.70;3.15;;;;;;;-146.42;100.00;67171.59;6056489;23;20031;-88
2022/11/06 15:40:26;;;;;;;14.20;5.35;;;;;;;-146.42;100.00;67171.59;6205184;23;20020;-87
2022/11/06 15:43:21;;;;;;;;;;;;;;;;;;;;;
2022/11/06 15:46:27;;;;;;;12.95;3.65;;;;;;;-146.42;100.00;67171.59;6183098;23;20035;-88
2022/11/06 15:49:59;;;;;;;10.38;3.28;;;;;;;-146.42;100.00;67171.59;6210507;23;20025;-87
2022/11/06 15:53:00;;;;;;;12.20;3.60;;;;;;;-146.42;100.00;67171.59;6181912;23;20111;-87
2022/11/06 15:59:28;;;;;;;8.70;3.10;;;;;;;-146.42;100.00;67171.59;6085483;23;20135;-86